• Join FlightAware (Why Join?)
  • Login
  • US Flag 
11:11AM EST


 

Airport Tracker/Info


-or-


 

Live Flight TrackerFlight Track Log ✈ UAL3776 ✈ 12-May-2013 ✈ KCLT - KORD

Flight Track Log - Related Links

Times and Time Zones

All times are in EDT time to prevent confusion due to time zone crossing. See the UAL3776 flight status page for this flight to view local times or setup timezone preferences in your user account.

Time Position Orientation Groundspeed Altitude Reporting Facility
EDT Latitude Longitude Course Direction KTS MPH feet Rate Location/Type
12:28PM 35.2353 -80.9594 68° East 171 197 1,600  Level Atlanta Center
12:29PM 35.2628 -80.9761 334° Northwest 177 204 2,600 1,860 Climbing Atlanta Center
12:30PM 35.3219 -81.0044 339° North 272 313 4,700 2,100 Climbing Atlanta Center
12:30PM 35.3758 -80.9900 12° North 274 315 6,400 2,520 Climbing Atlanta Center
12:31PM 35.1037 -81.1704 321° Northwest  Level FlightAware Approximate
12:31PM 35.4464 -80.9719 12° North 283 326 9,300  Level Atlanta Center
12:32PM 35.1730 -81.2167 North  Level FlightAware Approximate
12:32PM 35.5311 -80.9458 14° North 297 342 11,000  Level Atlanta Center
12:33PM 35.2692 -81.2091 68° East  Level FlightAware Approximate
12:33PM 35.6244 -80.9192 13° North 326 375 13,200  Level Atlanta Center
12:34PM 35.7131 -80.9569 341° North 323 372 15,600 2,220 Climbing Atlanta Center
12:35PM 35.7975 -81.0022 336° Northwest 329 379 17,700 1,560 Climbing Atlanta Center
12:36PM 35.8883 -81.0528 336° Northwest 344 396 18,800 1,140 Climbing Atlanta Center
12:37PM 35.9897 -81.1028 338° Northwest 365 420 20,000 600 Climbing Atlanta Center
12:38PM 36.0975 -81.1581 337° Northwest 398 458 20,000  Level Atlanta Center
12:39PM 36.2031 -81.2161 336° Northwest 409 471 20,000 120 Level Atlanta Center
12:40PM 36.3086 -81.2717 337° Northwest 415 478 20,300 900 Climbing Atlanta Center
12:41PM 36.4061 -81.3431 329° Northwest 407 468 21,800 1,260 Climbing Atlanta Center
12:42PM 36.4961 -81.4486 317° Northwest 401 461 22,900 1,080 Climbing Atlanta Center
12:43PM 36.5753 -81.5494 314° West 406 467 24,000 1,140 Climbing Atlanta Center
12:44PM 36.6544 -81.6531 314° West 406 467 25,200 1,140 Climbing Atlanta Center
12:47PM 36.8322 -81.8833 314° West 401 461 27,900 1,080 Climbing Indianapolis Center
12:48PM 36.9122 -81.9825 315° West 404 465 28,900 1,020 Climbing Indianapolis Center
12:49PM 36.9900 -82.0831 314° West 400 460 30,000 960 Climbing Indianapolis Center
12:50PM 37.0661 -82.1828 314° West 398 458 31,000 960 Climbing Indianapolis Center
12:51PM 37.1411 -82.2800 314° West 391 450 32,000 960 Climbing Indianapolis Center
12:52PM 37.2150 -82.3767 314° West 386 444 33,000 960 Climbing Indianapolis Center
12:53PM 37.2994 -82.4872 314° West 378 435 34,100 1,020 Climbing Indianapolis Center
12:54PM 37.3703 -82.5806 314° West 373 429 35,200 900 Climbing Indianapolis Center
12:55PM 37.4389 -82.6719 313° West 364 419 36,000 360 Climbing Indianapolis Center
12:56PM 37.5086 -82.7639 314° West 363 418 36,000  Level Indianapolis Center
12:57PM 37.5819 -82.8617 313° West 380 437 36,000  Level Indianapolis Center
12:58PM 37.6567 -82.9606 314° West 388 447 36,000  Level Indianapolis Center
12:59PM 37.7447 -83.0761 314° West 391 450 36,000  Level Indianapolis Center
01:00PM 37.8186 -83.1772 313° West 390 449 36,000  Level Indianapolis Center
01:01PM 37.8925 -83.2775 313° West 391 450 36,000  Level Indianapolis Center
01:02PM 37.9678 -83.3769 314° West 391 450 36,000  Level Indianapolis Center
01:03PM 38.0433 -83.4806 313° West 397 457 36,000  Level Indianapolis Center
01:04PM 38.1328 -83.5989 314° West 399 459 36,000  Level Indianapolis Center
01:05PM 38.2089 -83.7033 313° West 400 460 36,000  Level Indianapolis Center
01:06PM 38.2842 -83.8067 313° West 398 458 36,000  Level Indianapolis Center
01:07PM 38.3600 -83.9097 313° West 397 457 36,000  Level Indianapolis Center
01:08PM 38.4342 -84.0131 313° West 394 453 36,000  Level Indianapolis Center
01:09PM 38.5097 -84.1144 314° West 394 453 36,000  Level Indianapolis Center
01:10PM 38.5956 -84.2356 312° West 395 455 36,000  Level Indianapolis Center
01:11PM 38.6681 -84.3325 314° West 393 452 36,000  Level Indianapolis Center
01:13PM 38.7444 -84.4372 313° West 398 458 36,000  Level Indianapolis Center
01:14PM 38.8197 -84.5386 314° West 400 460 36,000 -360 Level Indianapolis Center
01:15PM 38.8939 -84.6436 312° West 399 459 35,300 -1,440 Descending Indianapolis Center
01:16PM 38.9786 -84.7497 316° Northwest 404 465 33,100 -2,040 Descending Indianapolis Center
01:17PM 39.0581 -84.8444 317° Northwest 390 449 31,100 -1,500 Descending Indianapolis Center
01:18PM 39.1478 -84.9503 318° Northwest 388 447 30,000 -540 Descending Indianapolis Center
01:19PM 39.2236 -85.0522 314° West 394 453 30,000  Level Indianapolis Center
01:20PM 39.2964 -85.1575 312° West 396 456 30,000  Level Indianapolis Center
01:21PM 39.3714 -85.2650 312° West 402 463 30,000  Level Indianapolis Center
01:22PM 39.4883 -85.3575 329° Northwest 443 510 30,000 -600 Level Indianapolis Center
01:23PM 39.6067 -85.3950 346° North 444 511 28,800 -1,620 Descending Indianapolis Center
01:24PM 39.7211 -85.4322 346° North 431 496 26,800 -1,380 Descending Indianapolis Center
01:25PM 39.8308 -85.4672 346° North 415 478 26,000 -420 Descending Indianapolis Center
01:26PM 39.9431 -85.5031 346° North 417 480 26,000 -300 Level Indianapolis Center
01:27PM 40.0803 -85.5461 347° North 425 489 25,500 -960 Descending Indianapolis Center
01:28PM 40.1706 -85.5744 347° North 426 490 24,300 -840 Descending Chicago Center
01:29PM 40.2819 -85.6103 346° North 418 481 24,000 -180 Descending Chicago Center
01:30PM 40.3931 -85.6508 344° North 417 480 24,000  Level Chicago Center
01:31PM 40.4853 -85.7275 328° Northwest 394 453 24,000  Level Chicago Center
01:32PM 40.5678 -85.8167 321° Northwest 388 447 24,000 -480 Level Chicago Center
01:33PM 40.6683 -85.9208 322° Northwest 386 444 23,100 -540 Descending Chicago Center
01:34PM 40.7475 -86.0036 322° Northwest 383 441 23,000 -300 Descending Chicago Center
01:35PM 40.8306 -86.0903 322° Northwest 381 438 22,500 -960 Descending Chicago Center
01:36PM 40.9114 -86.1750 322° Northwest 372 428 21,100 -1,020 Descending Chicago Center
01:37PM 40.9900 -86.2581 321° Northwest 362 417 20,400 -1,260 Descending Chicago Center
01:38PM 41.0839 -86.3569 322° Northwest 359 413 18,500 -1,560 Descending Chicago Center
01:39PM 41.1575 -86.4361 321° Northwest 347 399 17,200 -780 Descending Chicago Center
01:40PM 41.2311 -86.5150 321° Northwest 341 392 17,000 -840 Descending Chicago Center
01:41PM 41.3094 -86.5867 326° Northwest 342 394 15,500 -1,500 Descending Chicago Center
01:42PM 41.3881 -86.6553 327° Northwest 340 391 14,000 -1,260 Descending Chicago Center
01:43PM 41.4686 -86.7239 327° Northwest 334 384 13,000 -780 Descending Chicago Center
01:44PM 41.5461 -86.7817 331° Northwest 320 368 12,500 -540 Descending Chicago Center
01:45PM 41.6500 -86.7931 355° North 316 364 12,000 -300 Descending Chicago Center
01:46PM 41.7358 -86.8044 354° North 312 359 12,000 -60 Level Chicago Center
01:47PM 41.8197 -86.8197 352° North 310 357 11,900 -480 Descending Chicago Center
01:48PM 41.8917 -86.8689 333° Northwest 315 362 11,100 -480 Descending Chicago Center
01:49PM 41.9269 -86.9706 295° West 306 352 11,000 -900 Descending Chicago Center
01:51PM 41.9603 -87.0722 294° West 252 290 9,300 -1,020 Descending Chicago Center
01:52PM 41.9825 -87.1594 289° West 250 288 9,000 -180 Descending Chicago Center
01:53PM 41.9825 -87.2539 270° West 252 290 9,000 -120 Level Chicago Center
01:54PM 41.9844 -87.3475 272° West 252 290 8,800 -480 Descending Chicago Center
01:54PM 41.9833 -87.3833 268° West 251 289 8,400 -1,080 Descending Chicago TRACON
01:55PM 41.9833 -87.4667 270° West 213 245 7,400 -1,260 Descending Chicago TRACON
01:56PM 41.9833 -87.5500 270° West 204 235 5,800 -1,260 Descending Chicago TRACON
01:57PM 41.9833 -87.6167 270° West 170 196 4,800 -1,020 Descending Chicago TRACON
01:58PM 41.9833 -87.6833 270° West 172 198 3,800 -960 Descending Chicago TRACON
01:59PM 41.9833 -87.7333 270° West 154 177 3,000 -900 Descending Chicago TRACON
02:00PM 41.9833 -87.8000 270° West 151 174 2,100 -900 Descending Chicago TRACON